createdAt,value
2019-05-21T00:00:26.170Z,14.60
2019-05-21T00:01:01.359Z,14.70
2019-05-21T00:01:38.239Z,14.70
2019-05-21T00:02:13.823Z,14.70
2019-05-21T00:02:48.927Z,14.60
2019-05-21T00:03:25.558Z,14.60
2019-05-21T00:04:01.280Z,14.60
2019-05-21T00:04:36.675Z,14.70
2019-05-21T00:05:12.351Z,14.70
2019-05-21T00:05:48.018Z,14.60
2019-05-21T00:06:23.358Z,14.60
2019-05-21T00:06:59.496Z,14.70
2019-05-21T00:07:35.095Z,14.60
2019-05-21T00:08:10.151Z,14.60
2019-05-21T00:08:45.730Z,14.60
2019-05-21T00:09:21.670Z,14.60
2019-05-21T00:09:57.007Z,14.60
2019-05-21T00:10:32.599Z,14.60
2019-05-21T00:11:09.614Z,14.60
2019-05-21T00:11:44.627Z,14.60
2019-05-21T00:12:20.614Z,14.60
2019-05-21T00:12:56.506Z,14.60
2019-05-21T00:13:31.863Z,14.60
2019-05-21T00:14:07.520Z,14.60
2019-05-21T00:14:43.175Z,14.60
2019-05-21T00:15:18.543Z,14.60
2019-05-21T00:15:55.131Z,14.60
2019-05-21T00:16:31.694Z,14.50
2019-05-21T00:17:07.052Z,14.60
2019-05-21T00:17:42.975Z,14.50
2019-05-21T00:18:18.637Z,14.50
2019-05-21T00:18:53.684Z,14.50
2019-05-21T00:19:29.372Z,14.50
2019-05-21T00:20:06.631Z,14.50
2019-05-21T00:20:42.020Z,14.50
2019-05-21T00:21:17.607Z,14.50
2019-05-21T00:21:53.194Z,14.50
2019-05-21T00:22:28.255Z,14.50
2019-05-21T00:23:17.199Z,14.50
2019-05-21T00:23:53.096Z,14.50
2019-05-21T00:24:29.307Z,14.50
2019-05-21T00:25:06.055Z,14.50
2019-05-21T00:25:42.662Z,14.50
2019-05-21T00:26:18.871Z,14.50
2019-05-21T00:26:54.472Z,14.50
2019-05-21T00:27:30.059Z,14.50
2019-05-21T00:28:41.641Z,14.40
2019-05-21T00:29:53.895Z,14.40
2019-05-21T00:31:05.318Z,14.50
2019-05-21T00:32:17.476Z,14.40
2019-05-21T00:33:29.468Z,14.40
2019-05-21T00:34:43.960Z,14.40
2019-05-21T00:35:54.951Z,14.40
2019-05-21T00:37:07.869Z,14.40
2019-05-21T00:38:19.023Z,14.40
2019-05-21T00:39:30.917Z,14.40
2019-05-21T00:40:43.927Z,14.40
2019-05-21T00:41:55.879Z,14.40
2019-05-21T00:42:33.399Z,14.40
2019-05-21T00:43:09.028Z,14.40
2019-05-21T00:43:56.279Z,14.40
2019-05-21T00:44:33.167Z,14.40
2019-05-21T00:45:10.846Z,14.40
2019-05-21T00:45:46.446Z,14.40
2019-05-21T00:46:21.492Z,14.40
2019-05-21T00:46:57.320Z,14.40
2019-05-21T00:47:32.919Z,14.40
2019-05-21T00:48:07.970Z,14.40
2019-05-21T00:48:43.567Z,14.40
2019-05-21T00:49:19.162Z,14.40
2019-05-21T00:49:54.213Z,14.40
2019-05-21T00:50:29.804Z,14.40
2019-05-21T00:51:05.415Z,14.40
2019-05-21T00:51:40.760Z,14.40
2019-05-21T00:52:16.338Z,14.40
2019-05-21T00:52:52.166Z,14.40
2019-05-21T00:53:27.206Z,14.40
2019-05-21T00:54:03.065Z,14.40
2019-05-21T00:54:38.755Z,14.40
2019-05-21T00:55:13.815Z,14.40
2019-05-21T00:55:49.890Z,14.30
2019-05-21T00:56:25.560Z,14.30
2019-05-21T00:57:00.828Z,14.30
2019-05-21T00:57:36.731Z,14.30
2019-05-21T00:58:12.353Z,14.30
2019-05-21T00:58:47.424Z,14.30
2019-05-21T00:59:23.021Z,14.30
2019-05-21T00:59:58.622Z,14.30
2019-05-21T01:00:33.844Z,14.30
2019-05-21T01:01:09.504Z,14.30
2019-05-21T01:01:45.428Z,14.30
2019-05-21T01:02:20.730Z,14.30
2019-05-21T01:02:56.378Z,14.30
2019-05-21T01:03:32.011Z,14.30
2019-05-21T01:04:07.140Z,14.30
2019-05-21T01:04:43.024Z,14.30
2019-05-21T01:05:18.625Z,14.30
2019-05-21T01:05:53.730Z,14.20
2019-05-21T01:06:29.568Z,14.30
2019-05-21T01:07:05.175Z,14.20
2019-05-21T01:07:40.249Z,14.30
2019-05-21T01:08:15.830Z,14.30
2019-05-21T01:08:51.707Z,14.20
2019-05-21T01:09:26.775Z,14.30
2019-05-21T01:10:02.702Z,14.20
2019-05-21T01:10:38.330Z,14.20
2019-05-21T01:11:13.409Z,14.30
2019-05-21T01:11:49.004Z,14.30
2019-05-21T01:12:24.929Z,14.20
2019-05-21T01:13:00.214Z,14.20
2019-05-21T01:13:35.797Z,14.20
2019-05-21T01:14:11.694Z,14.20
2019-05-21T01:14:46.753Z,14.20
2019-05-21T01:15:22.354Z,14.20
2019-05-21T01:15:58.030Z,14.20
2019-05-21T01:16:33.104Z,14.20
2019-05-21T01:17:08.697Z,14.20
2019-05-21T01:17:45.501Z,14.20
2019-05-21T01:18:20.542Z,14.20
2019-05-21T01:18:56.132Z,14.20
2019-05-21T01:19:31.739Z,14.20
2019-05-21T01:20:07.243Z,14.20
2019-05-21T01:20:42.844Z,14.20
2019-05-21T01:21:18.436Z,14.20
2019-05-21T01:21:53.487Z,14.30
2019-05-21T01:22:30.122Z,14.20
2019-05-21T01:23:05.711Z,14.20
2019-05-21T01:23:40.754Z,14.20
2019-05-21T01:24:16.355Z,14.20
2019-05-21T01:24:51.997Z,14.20
2019-05-21T01:25:27.062Z,14.20
2019-05-21T01:26:02.654Z,14.20
2019-05-21T01:26:38.291Z,14.20
2019-05-21T01:27:13.318Z,14.20
2019-05-21T01:27:49.176Z,14.20
2019-05-21T01:28:25.764Z,14.20
2019-05-21T01:29:00.806Z,14.20
2019-05-21T01:29:36.487Z,14.20
2019-05-21T01:30:12.184Z,14.20
2019-05-21T01:30:47.198Z,14.10
2019-05-21T01:31:22.795Z,14.20
2019-05-21T01:31:58.418Z,14.10
2019-05-21T01:32:33.725Z,14.10
2019-05-21T01:33:09.311Z,14.10
2019-05-21T01:33:44.910Z,14.10
2019-05-21T01:34:20.074Z,14.20
2019-05-21T01:34:55.650Z,14.20
2019-05-21T01:35:31.266Z,14.10
2019-05-21T01:36:06.437Z,14.10
2019-05-21T01:36:42.046Z,14.10
2019-05-21T01:37:17.631Z,14.10
2019-05-21T01:37:53.022Z,14.10
2019-05-21T01:38:28.617Z,14.10
2019-05-21T01:39:05.299Z,14.10
2019-05-21T01:39:40.330Z,14.10
2019-05-21T01:40:15.931Z,14.10
2019-05-21T01:40:51.562Z,14.10
2019-05-21T01:41:26.678Z,14.10
2019-05-21T01:42:02.306Z,14.10
2019-05-21T01:42:37.894Z,14.10
2019-05-21T01:43:13.414Z,14.10
2019-05-21T01:43:49.242Z,14.10
2019-05-21T01:44:25.095Z,14.10
2019-05-21T01:45:00.145Z,14.00
2019-05-21T01:45:36.028Z,14.10
2019-05-21T01:46:11.675Z,14.00
2019-05-21T01:46:46.744Z,14.00
2019-05-21T01:47:22.407Z,14.10
2019-05-21T01:47:58.024Z,14.00
2019-05-21T01:48:33.370Z,14.00
2019-05-21T01:49:08.967Z,14.00
2019-05-21T01:49:44.571Z,14.00
2019-05-21T01:50:19.677Z,14.00
2019-05-21T01:50:55.342Z,14.00
2019-05-21T01:51:30.979Z,14.00
2019-05-21T01:52:06.050Z,14.00
2019-05-21T01:52:42.137Z,14.00
2019-05-21T01:53:17.732Z,14.00
2019-05-21T01:53:53.107Z,14.00
2019-05-21T01:54:28.729Z,14.00
2019-05-21T01:55:04.818Z,14.00
2019-05-21T01:55:39.941Z,14.00
2019-05-21T01:56:15.577Z,14.00
2019-05-21T01:56:51.491Z,14.00
2019-05-21T01:57:26.545Z,14.00
2019-05-21T01:58:02.377Z,14.00
2019-05-21T01:58:38.020Z,14.00
2019-05-21T01:59:14.279Z,14.00
2019-05-21T01:59:49.897Z,14.00
2019-05-21T02:00:25.518Z,14.00
2019-05-21T02:01:01.089Z,13.90
2019-05-21T02:01:36.675Z,13.90
2019-05-21T02:02:12.676Z,13.90
2019-05-21T02:02:47.707Z,14.00
2019-05-21T02:03:23.295Z,13.90
2019-05-21T02:03:58.893Z,14.00
2019-05-21T02:04:33.934Z,13.90
2019-05-21T02:05:09.532Z,14.00
2019-05-21T02:05:45.131Z,13.90
2019-05-21T02:06:20.450Z,13.90
2019-05-21T02:06:56.108Z,13.90
2019-05-21T02:07:31.786Z,13.90
2019-05-21T02:08:06.842Z,13.90
2019-05-21T02:08:42.430Z,13.90
2019-05-21T02:09:18.034Z,13.90
2019-05-21T02:09:59.138Z,13.90
2019-05-21T02:10:34.719Z,13.90
2019-05-21T02:11:10.318Z,13.90
2019-05-21T02:11:45.471Z,13.90
2019-05-21T02:12:21.683Z,13.90
2019-05-21T02:12:57.279Z,13.90
2019-05-21T02:13:32.314Z,13.90
2019-05-21T02:14:07.987Z,13.90
2019-05-21T02:14:44.200Z,13.90
2019-05-21T02:15:19.230Z,13.90
2019-05-21T02:15:55.921Z,13.90
2019-05-21T02:16:31.511Z,13.90
2019-05-21T02:17:06.554Z,13.90
2019-05-21T02:17:42.236Z,13.90
2019-05-21T02:18:17.832Z,13.90
2019-05-21T02:18:52.868Z,13.90
2019-05-21T02:19:28.787Z,13.90
2019-05-21T02:20:04.664Z,13.90
2019-05-21T02:20:39.699Z,13.90
2019-05-21T02:21:15.646Z,13.90
2019-05-21T02:21:51.234Z,13.90
2019-05-21T02:22:26.261Z,13.90
2019-05-21T02:23:01.984Z,13.90
2019-05-21T02:23:37.652Z,13.90
2019-05-21T02:24:12.994Z,13.90
2019-05-21T02:24:48.599Z,13.90
2019-05-21T02:25:24.179Z,13.90
2019-05-21T02:25:59.592Z,13.90
2019-05-21T02:26:35.170Z,13.90
2019-05-21T02:27:10.766Z,13.90
2019-05-21T02:27:45.803Z,13.90
2019-05-21T02:28:22.365Z,13.90
2019-05-21T02:28:57.982Z,13.90
2019-05-21T02:29:33.388Z,13.90
2019-05-21T02:30:10.139Z,13.90
2019-05-21T02:30:46.820Z,13.90
2019-05-21T02:31:21.855Z,13.90
2019-05-21T02:31:57.454Z,13.90
2019-05-21T02:32:34.101Z,13.90
2019-05-21T02:33:10.235Z,13.90
2019-05-21T02:33:45.828Z,13.90
2019-05-21T02:34:21.424Z,13.90
2019-05-21T02:34:56.802Z,13.90
2019-05-21T02:35:32.394Z,13.90
2019-05-21T02:36:08.064Z,13.90
2019-05-21T02:36:43.136Z,13.90
2019-05-21T02:37:18.717Z,13.90
2019-05-21T02:37:54.608Z,13.90
2019-05-21T02:38:29.658Z,13.90
2019-05-21T02:39:07.512Z,13.90
2019-05-21T02:39:43.371Z,13.90
2019-05-21T02:40:19.052Z,13.90
2019-05-21T02:40:54.646Z,13.90
2019-05-21T02:41:30.236Z,13.90
2019-05-21T02:42:05.269Z,13.90
2019-05-21T02:42:40.863Z,13.80
2019-05-21T02:43:16.468Z,13.80
2019-05-21T02:43:51.624Z,13.80
2019-05-21T02:44:27.625Z,13.80
2019-05-21T02:45:03.318Z,13.80
2019-05-21T02:45:38.408Z,13.80
2019-05-21T02:46:13.994Z,13.80
2019-05-21T02:46:49.935Z,13.80
2019-05-21T02:47:25.031Z,13.80
2019-05-21T02:48:00.613Z,13.80
2019-05-21T02:48:36.533Z,13.80
2019-05-21T02:49:11.581Z,13.80
2019-05-21T02:49:47.187Z,13.80
2019-05-21T02:50:22.764Z,13.80
2019-05-21T02:50:57.811Z,13.80
2019-05-21T02:51:33.707Z,13.80
2019-05-21T02:52:09.296Z,13.80
2019-05-21T02:52:44.367Z,13.80
2019-05-21T02:53:20.295Z,13.80
2019-05-21T02:53:56.213Z,13.80
2019-05-21T02:54:41.100Z,13.80
2019-05-21T02:55:08.693Z,13.80
2019-05-21T02:55:44.293Z,13.80
2019-05-21T02:56:19.344Z,13.90
2019-05-21T02:56:55.235Z,13.90
2019-05-21T02:57:41.241Z,13.80
2019-05-21T02:58:16.339Z,13.80
2019-05-21T02:58:52.268Z,13.80
2019-05-21T02:59:27.965Z,13.90
2019-05-21T03:00:05.090Z,13.90
2019-05-21T03:01:05.656Z,13.90
2019-05-21T03:01:53.151Z,13.80
2019-05-21T03:02:36.425Z,13.90
2019-05-21T03:03:12.918Z,13.90
2019-05-21T03:03:48.508Z,13.80
2019-05-21T03:04:23.542Z,13.90
2019-05-21T03:04:59.178Z,13.80
2019-05-21T03:05:34.759Z,13.80
2019-05-21T03:06:14.420Z,13.80
2019-05-21T03:06:47.093Z,13.80
2019-05-21T03:07:25.538Z,13.80
2019-05-21T03:07:59.657Z,13.80
2019-05-21T03:08:35.257Z,13.80
2019-05-21T03:09:10.853Z,13.80
2019-05-21T03:09:46.951Z,13.80
2019-05-21T03:10:22.539Z,13.80
2019-05-21T03:10:58.141Z,13.80
2019-05-21T03:11:33.226Z,13.80
2019-05-21T03:12:08.826Z,13.80
2019-05-21T03:12:44.758Z,13.80
2019-05-21T03:13:19.877Z,13.80
2019-05-21T03:13:55.475Z,13.80
2019-05-21T03:14:31.069Z,13.80
2019-05-21T03:15:06.134Z,13.80
2019-05-21T03:15:42.072Z,13.80
2019-05-21T03:16:17.662Z,13.80
2019-05-21T03:16:52.708Z,13.80
2019-05-21T03:17:28.295Z,13.80
2019-05-21T03:18:04.254Z,13.80
2019-05-21T03:18:39.392Z,13.80
2019-05-21T03:19:16.727Z,13.80
2019-05-21T03:19:52.430Z,13.80
2019-05-21T03:20:27.597Z,13.80
2019-05-21T03:21:03.379Z,13.80
2019-05-21T03:21:39.045Z,13.80
2019-05-21T03:22:14.333Z,13.80
2019-05-21T03:22:49.935Z,13.80
2019-05-21T03:23:25.525Z,13.80
2019-05-21T03:24:00.566Z,13.80
2019-05-21T03:24:36.166Z,13.80
2019-05-21T03:25:11.766Z,13.80
2019-05-21T03:25:46.807Z,13.70
2019-05-21T03:26:22.404Z,13.80
2019-05-21T03:26:58.408Z,13.80
2019-05-21T03:27:33.552Z,13.70
2019-05-21T03:28:09.447Z,13.70
2019-05-21T03:28:45.130Z,13.70
2019-05-21T03:29:20.424Z,13.70
2019-05-21T03:29:56.043Z,13.70
2019-05-21T03:30:31.656Z,13.70
2019-05-21T03:31:06.699Z,13.70
2019-05-21T03:31:42.317Z,13.70
2019-05-21T03:32:18.464Z,13.70
2019-05-21T03:32:53.848Z,13.70
2019-05-21T03:33:29.769Z,13.70
2019-05-21T03:34:05.649Z,13.70
2019-05-21T03:34:40.760Z,13.70
2019-05-21T03:35:17.328Z,13.70
2019-05-21T03:35:52.987Z,13.70
2019-05-21T03:36:33.310Z,13.70
2019-05-21T03:37:05.440Z,13.70
2019-05-21T03:37:41.031Z,13.70
2019-05-21T03:38:16.076Z,13.70
2019-05-21T03:38:51.668Z,13.70
2019-05-21T03:39:27.709Z,13.70
2019-05-21T03:40:03.196Z,13.70
2019-05-21T03:40:38.901Z,13.70
2019-05-21T03:41:14.769Z,13.70
2019-05-21T03:41:49.811Z,13.70
2019-05-21T03:42:25.390Z,13.70
2019-05-21T03:43:00.988Z,13.70
2019-05-21T03:43:36.032Z,13.70
2019-05-21T03:44:12.013Z,13.70
2019-05-21T03:44:58.987Z,13.70
2019-05-21T03:45:24.655Z,13.70
2019-05-21T03:46:00.275Z,13.70
2019-05-21T03:46:35.932Z,13.70
2019-05-21T03:47:11.475Z,13.70
2019-05-21T03:47:47.061Z,13.70
2019-05-21T03:48:22.677Z,13.70
2019-05-21T03:48:57.843Z,13.70
2019-05-21T03:49:33.450Z,13.70
2019-05-21T03:50:09.085Z,13.60
2019-05-21T03:50:44.112Z,13.60
2019-05-21T03:51:19.704Z,13.70
2019-05-21T03:51:55.334Z,13.70
2019-05-21T03:52:30.373Z,13.60
2019-05-21T03:53:05.956Z,13.60
2019-05-21T03:53:41.558Z,13.60
2019-05-21T03:54:16.834Z,13.70
2019-05-21T03:54:52.558Z,13.70
2019-05-21T03:55:28.136Z,13.70
2019-05-21T03:56:03.461Z,13.70
2019-05-21T03:56:39.052Z,13.70
2019-05-21T03:57:14.644Z,13.70
2019-05-21T03:57:49.979Z,13.70
2019-05-21T03:58:25.889Z,13.70
2019-05-21T03:59:02.494Z,13.70
2019-05-21T03:59:37.580Z,13.70
2019-05-21T04:00:13.259Z,13.70
2019-05-21T04:00:49.159Z,13.70
2019-05-21T04:01:24.287Z,13.70
2019-05-21T04:01:59.891Z,13.70
2019-05-21T04:02:35.827Z,13.70
2019-05-21T04:03:10.859Z,13.70
2019-05-21T04:03:46.469Z,13.70
2019-05-21T04:04:22.081Z,13.60
2019-05-21T04:04:57.211Z,13.70
2019-05-21T04:05:32.830Z,13.70
2019-05-21T04:06:09.062Z,13.70
2019-05-21T04:06:51.703Z,13.70
2019-05-21T04:07:21.475Z,13.60
2019-05-21T04:07:57.278Z,13.70
2019-05-21T04:08:32.353Z,13.70
2019-05-21T04:09:08.392Z,13.70
2019-05-21T04:09:43.994Z,13.60
2019-05-21T04:10:20.003Z,13.70
2019-05-21T04:10:55.933Z,13.60
2019-05-21T04:11:31.552Z,13.70
2019-05-21T04:12:06.699Z,13.70
2019-05-21T04:12:42.681Z,13.70
2019-05-21T04:13:18.275Z,13.70
2019-05-21T04:13:53.315Z,13.70
2019-05-21T04:14:51.419Z,13.70
2019-05-21T04:15:29.146Z,13.70
2019-05-21T04:16:10.924Z,13.70
2019-05-21T04:16:56.284Z,13.70
2019-05-21T04:17:38.536Z,13.70
2019-05-21T04:18:17.883Z,13.70
2019-05-21T04:19:05.919Z,13.70
2019-05-21T04:19:41.733Z,13.70
2019-05-21T04:20:16.776Z,13.70
2019-05-21T04:20:52.515Z,13.60
2019-05-21T04:21:28.092Z,13.70
2019-05-21T04:22:03.438Z,13.70
2019-05-21T04:22:52.993Z,13.70
2019-05-21T04:23:28.666Z,13.60
2019-05-21T04:24:03.821Z,13.60
2019-05-21T04:24:39.431Z,13.60
2019-05-21T04:25:15.014Z,13.60
2019-05-21T04:25:50.067Z,13.60
2019-05-21T04:26:25.675Z,13.60
2019-05-21T04:27:01.300Z,13.60
2019-05-21T04:27:36.637Z,13.60
2019-05-21T04:28:12.234Z,13.60
2019-05-21T04:28:47.822Z,13.60
2019-05-21T04:29:22.904Z,13.60
2019-05-21T04:29:58.496Z,13.60
2019-05-21T04:30:34.080Z,13.60
2019-05-21T04:31:09.148Z,13.60
2019-05-21T04:31:44.767Z,13.60
2019-05-21T04:32:20.708Z,13.70
2019-05-21T04:32:56.163Z,13.70
2019-05-21T04:33:31.836Z,13.70
2019-05-21T04:34:07.587Z,13.70
2019-05-21T04:34:42.713Z,13.70
2019-05-21T04:35:18.306Z,13.70
2019-05-21T04:35:53.973Z,13.70
2019-05-21T04:36:29.101Z,13.70
2019-05-21T04:37:10.981Z,13.70
2019-05-21T04:37:42.152Z,13.70
2019-05-21T04:38:17.186Z,13.70
2019-05-21T04:38:52.785Z,13.70
2019-05-21T04:39:28.435Z,13.70
2019-05-21T04:40:03.575Z,13.70
2019-05-21T04:40:39.508Z,13.70
2019-05-21T04:41:15.103Z,13.70
2019-05-21T04:41:50.144Z,13.70
2019-05-21T04:42:25.728Z,13.80
2019-05-21T04:43:02.603Z,13.70
2019-05-21T04:43:38.216Z,13.70
2019-05-21T04:44:13.853Z,13.70
2019-05-21T04:44:50.076Z,13.70
2019-05-21T04:45:25.107Z,13.70
2019-05-21T04:46:00.718Z,13.80
2019-05-21T04:46:36.350Z,13.70
2019-05-21T04:47:11.368Z,13.70
2019-05-21T04:47:46.957Z,13.70
2019-05-21T04:48:22.832Z,13.70
2019-05-21T04:48:58.389Z,13.70
2019-05-21T04:49:34.311Z,13.70
2019-05-21T04:50:09.900Z,13.70
2019-05-21T04:50:44.925Z,13.70
2019-05-21T04:51:20.525Z,13.70
2019-05-21T04:51:56.108Z,13.80
2019-05-21T04:52:31.384Z,13.80
2019-05-21T04:53:06.974Z,13.80
2019-05-21T04:53:42.867Z,13.80
2019-05-21T04:54:17.909Z,13.70
2019-05-21T04:54:53.515Z,13.70
2019-05-21T04:55:29.120Z,13.70
2019-05-21T04:56:04.757Z,13.80
2019-05-21T04:56:40.661Z,13.80
2019-05-21T04:57:16.510Z,13.80
2019-05-21T04:57:51.580Z,13.80
2019-05-21T04:58:27.239Z,13.80
2019-05-21T04:59:02.834Z,13.80
2019-05-21T04:59:37.876Z,13.80
2019-05-21T05:00:14.491Z,13.80
2019-05-21T05:00:50.130Z,13.80
2019-05-21T05:01:25.200Z,13.80
2019-05-21T05:02:00.791Z,13.80
2019-05-21T05:02:36.495Z,13.80
2019-05-21T05:03:11.556Z,13.80
2019-05-21T05:03:47.145Z,13.80
2019-05-21T05:04:22.775Z,13.80
2019-05-21T05:04:58.169Z,13.80
2019-05-21T05:05:33.763Z,13.80
2019-05-21T05:06:09.361Z,13.80
2019-05-21T05:06:44.387Z,13.80
2019-05-21T05:07:28.129Z,13.80
2019-05-21T05:07:57.617Z,13.80
2019-05-21T05:08:32.905Z,13.80
2019-05-21T05:09:08.800Z,13.80
2019-05-21T05:09:44.399Z,13.80
2019-05-21T05:10:20.672Z,13.80
2019-05-21T05:10:56.266Z,13.80
2019-05-21T05:11:32.103Z,13.80
2019-05-21T05:12:07.143Z,13.80
2019-05-21T05:12:42.744Z,13.80
2019-05-21T05:13:18.345Z,13.80
2019-05-21T05:13:53.386Z,13.80
2019-05-21T05:14:28.979Z,13.80
2019-05-21T05:15:05.148Z,13.80
2019-05-21T05:15:40.495Z,13.80
2019-05-21T05:16:16.070Z,13.80
2019-05-21T05:16:52.704Z,13.80
2019-05-21T05:17:27.788Z,13.80
2019-05-21T05:18:03.479Z,13.80
2019-05-21T05:18:39.071Z,13.80
2019-05-21T05:19:14.103Z,13.80
2019-05-21T05:19:49.703Z,13.80
2019-05-21T05:20:25.320Z,13.80
2019-05-21T05:21:00.356Z,13.90
2019-05-21T05:21:35.953Z,13.80
2019-05-21T05:22:11.575Z,13.80
2019-05-21T05:22:46.639Z,13.80
2019-05-21T05:23:22.231Z,13.80
2019-05-21T05:23:57.861Z,13.80
2019-05-21T05:24:32.950Z,13.90
2019-05-21T05:25:08.560Z,13.80
2019-05-21T05:25:44.138Z,13.80
2019-05-21T05:26:19.186Z,13.80
2019-05-21T05:26:54.783Z,13.90
2019-05-21T05:27:30.640Z,13.80
2019-05-21T05:28:05.707Z,13.80
2019-05-21T05:28:41.289Z,13.90
2019-05-21T05:29:17.198Z,13.90
2019-05-21T05:29:52.230Z,13.80
2019-05-21T05:30:28.295Z,13.90
2019-05-21T05:31:04.288Z,13.90
2019-05-21T05:31:39.711Z,13.90
2019-05-21T05:32:15.312Z,13.90
2019-05-21T05:32:50.895Z,13.90
2019-05-21T05:33:25.952Z,13.90
2019-05-21T05:34:01.653Z,13.90
2019-05-21T05:34:37.263Z,13.90
2019-05-21T05:35:12.425Z,13.90
2019-05-21T05:35:48.020Z,13.90
2019-05-21T05:36:23.625Z,13.90
2019-05-21T05:36:59.028Z,13.90
2019-05-21T05:37:43.177Z,13.90
2019-05-21T05:38:12.093Z,13.90
2019-05-21T05:38:47.509Z,13.90
2019-05-21T05:39:23.129Z,13.90
2019-05-21T05:39:58.770Z,13.90
2019-05-21T05:40:34.113Z,13.90
2019-05-21T05:41:09.747Z,13.90
2019-05-21T05:41:45.350Z,13.90
2019-05-21T05:42:20.378Z,13.90
2019-05-21T05:42:55.991Z,13.90
2019-05-21T05:43:31.628Z,13.90
2019-05-21T05:44:06.861Z,13.90
2019-05-21T05:44:42.526Z,13.90
2019-05-21T05:45:18.206Z,13.90
2019-05-21T05:45:53.241Z,13.90
2019-05-21T05:46:30.054Z,13.90
2019-05-21T05:47:05.654Z,13.90
2019-05-21T05:47:40.705Z,13.90
2019-05-21T05:48:16.778Z,13.80
2019-05-21T05:48:57.530Z,13.90
2019-05-21T05:49:37.839Z,13.90
2019-05-21T05:50:15.277Z,13.90
2019-05-21T05:50:52.435Z,13.80
2019-05-21T05:51:27.457Z,13.90
2019-05-21T05:52:03.116Z,13.90
2019-05-21T05:52:38.971Z,13.90
2019-05-21T05:53:14.028Z,13.80
2019-05-21T05:53:59.002Z,13.80
2019-05-21T05:54:34.871Z,13.90
2019-05-21T05:55:10.649Z,13.80
2019-05-21T05:55:46.310Z,13.90
2019-05-21T05:56:21.959Z,13.80
2019-05-21T05:56:57.051Z,13.90
2019-05-21T05:57:32.649Z,13.80
2019-05-21T05:58:08.247Z,13.90
2019-05-21T05:58:43.333Z,13.90
2019-05-21T05:59:18.936Z,13.90
2019-05-21T05:59:54.528Z,13.90
2019-05-21T06:00:29.764Z,13.90
2019-05-21T06:01:05.361Z,13.90
2019-05-21T06:01:41.211Z,13.90
2019-05-21T06:02:16.336Z,13.90
2019-05-21T06:02:52.574Z,13.90
2019-05-21T06:03:28.255Z,13.90
2019-05-21T06:04:03.470Z,13.90
2019-05-21T06:04:39.139Z,13.90
2019-05-21T06:05:14.844Z,13.90
2019-05-21T06:05:50.214Z,13.90
2019-05-21T06:06:26.799Z,13.90
2019-05-21T06:07:03.459Z,13.90
2019-05-21T06:07:38.838Z,13.90
2019-05-21T06:08:14.423Z,13.90
2019-05-21T06:08:50.402Z,13.90
2019-05-21T06:09:25.498Z,13.90
2019-05-21T06:10:01.150Z,13.90
2019-05-21T06:10:39.967Z,13.90
2019-05-21T06:11:13.494Z,13.90
2019-05-21T06:11:49.096Z,13.80
2019-05-21T06:12:25.112Z,13.80
2019-05-21T06:13:00.879Z,13.80
2019-05-21T06:13:36.743Z,13.80
2019-05-21T06:14:12.327Z,13.80
2019-05-21T06:14:47.620Z,13.80
2019-05-21T06:15:23.211Z,13.80
2019-05-21T06:15:59.046Z,13.80
2019-05-21T06:16:34.139Z,13.80
2019-05-21T06:17:09.771Z,13.80
2019-05-21T06:17:45.372Z,13.80
2019-05-21T06:18:20.412Z,13.90
2019-05-21T06:18:56.051Z,13.90
2019-05-21T06:19:31.655Z,13.80
2019-05-21T06:20:06.704Z,13.80
2019-05-21T06:20:42.535Z,13.90
2019-05-21T06:21:18.126Z,13.90
2019-05-21T06:21:53.175Z,13.80
2019-05-21T06:22:28.755Z,13.80
2019-05-21T06:23:04.524Z,13.80
2019-05-21T06:23:39.562Z,13.80
2019-05-21T06:24:15.155Z,13.80
2019-05-21T06:24:50.990Z,13.80
2019-05-21T06:25:27.005Z,13.80
2019-05-21T06:26:02.583Z,13.80
2019-05-21T06:26:38.172Z,13.80
2019-05-21T06:27:13.241Z,13.80
2019-05-21T06:27:48.840Z,13.80
2019-05-21T06:28:24.438Z,13.80
2019-05-21T06:28:59.583Z,13.80
2019-05-21T06:29:39.002Z,13.80
2019-05-21T06:30:12.463Z,13.80
2019-05-21T06:30:47.592Z,13.80
2019-05-21T06:31:23.201Z,13.80
2019-05-21T06:31:58.808Z,13.80
2019-05-21T06:32:34.105Z,13.80
2019-05-21T06:33:10.009Z,13.80
2019-05-21T06:33:45.914Z,13.80
2019-05-21T06:34:20.974Z,13.80
2019-05-21T06:34:56.607Z,13.80
2019-05-21T06:35:32.251Z,13.80
2019-05-21T06:36:07.320Z,13.80
2019-05-21T06:36:42.927Z,13.80
2019-05-21T06:37:18.550Z,13.90
2019-05-21T06:37:53.717Z,13.90
2019-05-21T06:38:29.303Z,13.80
2019-05-21T06:39:06.273Z,13.80
2019-05-21T06:39:41.806Z,13.90
2019-05-21T06:40:17.660Z,13.90
2019-05-21T06:40:53.255Z,13.90
2019-05-21T06:41:28.326Z,13.90
2019-05-21T06:42:04.197Z,13.90
2019-05-21T06:42:39.799Z,13.90
2019-05-21T06:43:14.845Z,13.90
2019-05-21T06:43:50.438Z,13.90
2019-05-21T06:44:26.043Z,13.90
2019-05-21T06:45:01.221Z,13.90
2019-05-21T06:45:37.206Z,13.90
2019-05-21T06:46:12.803Z,13.90
2019-05-21T06:46:47.854Z,13.90
2019-05-21T06:47:23.449Z,13.90
2019-05-21T06:47:59.305Z,13.90
2019-05-21T06:48:34.343Z,13.90
2019-05-21T06:49:10.182Z,13.90
2019-05-21T06:49:46.396Z,13.90
2019-05-21T06:50:21.457Z,13.90
2019-05-21T06:50:57.058Z,13.90
2019-05-21T06:51:32.935Z,13.90
2019-05-21T06:52:08.064Z,13.90
2019-05-21T06:52:43.675Z,13.90
2019-05-21T06:53:19.279Z,13.90
2019-05-21T06:53:54.420Z,13.90
2019-05-21T06:54:30.317Z,13.90
2019-05-21T06:55:05.944Z,13.90
2019-05-21T06:55:41.256Z,13.90
2019-05-21T06:56:16.911Z,13.90
2019-05-21T06:56:52.740Z,13.90
2019-05-21T06:57:27.781Z,13.90
2019-05-21T06:58:03.432Z,13.90
2019-05-21T06:58:39.019Z,13.90
2019-05-21T06:59:14.071Z,13.90
2019-05-21T06:59:49.740Z,13.90
2019-05-21T07:00:25.331Z,13.90
2019-05-21T07:01:00.371Z,13.90
2019-05-21T07:01:36.041Z,13.90
2019-05-21T07:02:11.662Z,13.90
2019-05-21T07:02:46.816Z,13.90
2019-05-21T07:03:22.420Z,13.90
2019-05-21T07:03:58.355Z,13.90
2019-05-21T07:04:33.512Z,13.90
2019-05-21T07:05:10.081Z,13.90
2019-05-21T07:05:58.524Z,13.90
2019-05-21T07:06:22.431Z,14.00
2019-05-21T07:06:59.279Z,14.00
2019-05-21T07:07:35.215Z,14.00
2019-05-21T07:08:10.610Z,14.00
2019-05-21T07:08:46.255Z,14.00
2019-05-21T07:09:22.208Z,14.00
2019-05-21T07:09:57.339Z,14.00
2019-05-21T07:10:32.949Z,14.00
2019-05-21T07:11:08.911Z,14.00
2019-05-21T07:11:44.290Z,14.00
2019-05-21T07:12:19.888Z,14.00
2019-05-21T07:12:55.667Z,14.00
2019-05-21T07:13:31.257Z,14.00
2019-05-21T07:14:07.238Z,14.10
2019-05-21T07:14:42.835Z,14.10
2019-05-21T07:15:17.950Z,14.10
2019-05-21T07:15:54.224Z,14.10
2019-05-21T07:16:29.904Z,14.10
2019-05-21T07:17:04.954Z,14.10
2019-05-21T07:17:40.896Z,14.10
2019-05-21T07:18:17.172Z,14.10
2019-05-21T07:18:52.216Z,14.10
2019-05-21T07:19:27.798Z,14.10
2019-05-21T07:20:03.546Z,14.10
2019-05-21T07:20:38.836Z,14.10
2019-05-21T07:21:14.715Z,14.10
2019-05-21T07:21:50.344Z,14.10
2019-05-21T07:22:25.379Z,14.10
2019-05-21T07:23:01.062Z,14.10
2019-05-21T07:23:36.727Z,14.10
2019-05-21T07:24:12.031Z,14.10
2019-05-21T07:24:47.615Z,14.10
2019-05-21T07:25:23.207Z,14.10
2019-05-21T07:25:58.601Z,14.10
2019-05-21T07:26:34.219Z,14.10
2019-05-21T07:27:10.186Z,14.10
2019-05-21T07:27:45.244Z,14.10
2019-05-21T07:28:20.846Z,14.10
2019-05-21T07:28:57.265Z,14.10
2019-05-21T07:29:32.672Z,14.10
2019-05-21T07:30:08.414Z,14.10
2019-05-21T07:30:44.297Z,14.10
2019-05-21T07:31:19.360Z,14.00
2019-05-21T07:31:54.955Z,14.10
2019-05-21T07:32:30.885Z,14.10
2019-05-21T07:33:06.749Z,14.10
2019-05-21T07:33:42.667Z,14.10
2019-05-21T07:34:18.287Z,14.10
2019-05-21T07:34:53.379Z,14.10
2019-05-21T07:35:29.028Z,14.00
2019-05-21T07:36:04.863Z,14.00
2019-05-21T07:36:40.187Z,14.00
2019-05-21T07:37:16.178Z,14.00
2019-05-21T07:37:51.774Z,14.10
2019-05-21T07:38:27.147Z,14.10
2019-05-21T07:39:02.783Z,14.00
2019-05-21T07:39:38.493Z,14.00
2019-05-21T07:40:13.543Z,14.00
2019-05-21T07:40:49.521Z,14.00
2019-05-21T07:41:25.172Z,14.00
2019-05-21T07:42:00.206Z,14.00
2019-05-21T07:42:35.817Z,14.10
2019-05-21T07:43:11.430Z,14.00
2019-05-21T07:43:47.552Z,14.00
2019-05-21T07:44:23.154Z,14.00
2019-05-21T07:44:58.818Z,14.00
2019-05-21T07:45:33.858Z,14.00
2019-05-21T07:46:09.467Z,14.00
2019-05-21T07:46:45.425Z,14.00
2019-05-21T07:47:20.562Z,14.10
2019-05-21T07:47:56.138Z,14.00
2019-05-21T07:48:31.723Z,14.10
2019-05-21T07:49:06.762Z,14.10